createdAt,value
2017-11-18T00:02:14.550Z,213.80
2017-11-18T00:04:42.110Z,168.67
2017-11-18T00:07:09.673Z,130.17
2017-11-18T00:09:37.593Z,63.43
2017-11-18T00:12:05.156Z,55.93
2017-11-18T00:14:32.734Z,57.90
2017-11-18T00:17:00.355Z,44.73
2017-11-18T00:19:28.680Z,42.50
2017-11-18T00:21:56.664Z,41.20
2017-11-18T00:24:24.208Z,47.40
2017-11-18T00:26:51.822Z,41.30
2017-11-18T00:29:20.185Z,53.77
2017-11-18T00:31:48.523Z,125.63
2017-11-18T00:34:16.610Z,74.80
2017-11-18T00:36:44.161Z,193.23
2017-11-18T00:39:11.771Z,122.97
2017-11-18T00:41:40.123Z,96.53
2017-11-18T00:44:07.715Z,173.53
2017-11-18T00:46:35.741Z,143.30
2017-11-18T00:49:03.298Z,293.20
2017-11-18T00:51:30.853Z,152.50
2017-11-18T00:53:58.460Z,79.00
2017-11-18T00:56:26.210Z,78.47
2017-11-18T00:58:54.855Z,115.73
2017-11-18T01:01:22.391Z,85.50
2017-11-18T01:03:50.604Z,134.23
2017-11-18T01:06:18.204Z,145.67
2017-11-18T01:08:45.763Z,125.83
2017-11-18T01:11:13.358Z,54.87
2017-11-18T01:13:40.916Z,128.33
2017-11-18T01:16:08.943Z,76.30
2017-11-18T01:18:37.274Z,149.10
2017-11-18T01:21:04.833Z,84.77
2017-11-18T01:23:32.414Z,89.97
2017-11-18T01:25:59.979Z,86.97
2017-11-18T01:28:28.039Z,95.67
2017-11-18T01:30:55.626Z,62.63
2017-11-18T01:33:23.197Z,42.70
2017-11-18T01:35:50.788Z,48.13
2017-11-18T01:38:18.395Z,57.67
2017-11-18T01:40:46.212Z,40.87
2017-11-18T01:43:13.815Z,40.77
2017-11-18T01:45:41.388Z,35.03
2017-11-18T01:48:08.971Z,32.40
2017-11-18T01:50:36.596Z,63.90
2017-11-18T01:53:04.651Z,37.03
2017-11-18T01:55:32.211Z,28.50
2017-11-18T01:57:59.758Z,37.27
2017-11-18T02:00:27.339Z,29.57
2017-11-18T02:02:54.895Z,34.90
2017-11-18T02:05:22.463Z,32.13
2017-11-18T02:07:50.032Z,30.03
2017-11-18T02:10:18.408Z,35.63
2017-11-18T02:12:45.959Z,36.90
2017-11-18T02:15:14.015Z,27.70
2017-11-18T02:17:41.578Z,25.80
2017-11-18T02:20:09.126Z,23.87
2017-11-18T02:22:36.743Z,27.67
2017-11-18T02:25:04.303Z,23.03
2017-11-18T02:27:32.534Z,24.27
2017-11-18T02:30:00.135Z,23.40
2017-11-18T02:32:27.708Z,23.87
2017-11-18T02:34:55.356Z,19.07
2017-11-18T02:37:22.920Z,22.40
2017-11-18T02:39:50.828Z,21.40
2017-11-18T02:42:18.382Z,28.10
2017-11-18T02:44:45.920Z,20.83
2017-11-18T02:47:13.498Z,24.07
2017-11-18T02:49:41.052Z,18.93
2017-11-18T02:52:08.661Z,21.77
2017-11-18T02:54:36.207Z,22.27
2017-11-18T02:57:06.725Z,23.80
2017-11-18T02:59:34.284Z,21.37
2017-11-18T03:02:01.816Z,20.03
2017-11-18T03:04:29.487Z,20.83
2017-11-18T03:06:57.032Z,22.43
2017-11-18T03:09:25.020Z,22.27
2017-11-18T03:11:52.563Z,24.73
2017-11-18T03:14:20.109Z,22.33
2017-11-18T03:16:48.023Z,27.43
2017-11-18T03:19:15.567Z,23.77
2017-11-18T03:21:43.530Z,24.63
2017-11-18T03:24:11.076Z,29.43
2017-11-18T03:26:38.616Z,27.47
2017-11-18T03:29:06.206Z,31.10
2017-11-18T03:31:33.787Z,34.00
2017-11-18T03:34:01.808Z,29.57
2017-11-18T03:36:29.351Z,30.27
2017-11-18T03:38:57.670Z,33.10
2017-11-18T03:41:25.255Z,35.03
2017-11-18T03:43:52.807Z,37.13
2017-11-18T03:46:20.791Z,26.63
2017-11-18T03:48:48.333Z,33.33
2017-11-18T03:51:15.910Z,33.27
2017-11-18T03:53:43.498Z,27.30
2017-11-18T03:56:11.814Z,35.87
2017-11-18T03:58:39.691Z,42.03
2017-11-18T04:01:07.243Z,23.17
2017-11-18T04:03:34.818Z,30.30
2017-11-18T04:06:02.419Z,24.10
2017-11-18T04:08:29.974Z,23.73
2017-11-18T04:10:58.614Z,21.97
2017-11-18T04:13:26.232Z,25.57
2017-11-18T04:15:53.857Z,26.57
2017-11-18T04:18:21.439Z,29.10
2017-11-18T04:20:49.770Z,24.70
2017-11-18T04:23:17.687Z,30.60
2017-11-18T04:25:46.077Z,31.30
2017-11-18T04:28:13.627Z,26.90
2017-11-18T04:30:41.543Z,30.13
2017-11-18T04:33:09.100Z,23.93
2017-11-18T04:35:37.019Z,23.80
2017-11-18T04:38:05.348Z,29.60
2017-11-18T04:40:32.903Z,34.33
2017-11-18T04:43:00.505Z,24.70
2017-11-18T04:45:28.854Z,38.73
2017-11-18T04:47:56.811Z,25.93
2017-11-18T04:50:24.360Z,25.40
2017-11-18T04:52:51.924Z,27.10
2017-11-18T04:55:19.548Z,28.13
2017-11-18T04:57:47.859Z,27.13
2017-11-18T05:00:15.726Z,31.57
2017-11-18T05:02:43.292Z,25.87
2017-11-18T05:05:10.843Z,23.40
2017-11-18T05:07:38.507Z,28.87
2017-11-18T05:10:06.066Z,25.20
2017-11-18T05:12:33.932Z,28.00
2017-11-18T05:15:01.492Z,26.17
2017-11-18T05:17:29.024Z,23.80
2017-11-18T05:19:56.613Z,29.30
2017-11-18T05:22:24.956Z,29.30
2017-11-18T05:24:52.783Z,32.07
2017-11-18T05:27:20.338Z,26.13
2017-11-18T05:29:48.695Z,31.03
2017-11-18T05:32:16.268Z,27.77
2017-11-18T05:34:43.830Z,21.73
2017-11-18T05:37:11.697Z,29.07
2017-11-18T05:39:39.254Z,24.90
2017-11-18T05:42:06.844Z,34.17
2017-11-18T05:44:35.192Z,31.13
2017-11-18T05:47:02.751Z,35.83
2017-11-18T05:49:30.808Z,41.50
2017-11-18T05:51:58.373Z,39.17
2017-11-18T05:54:25.934Z,35.43
2017-11-18T05:56:53.523Z,52.27
2017-11-18T05:59:21.083Z,42.90
2017-11-18T06:01:49.740Z,43.40
2017-11-18T06:04:17.304Z,37.90
2017-11-18T06:06:44.860Z,41.40
2017-11-18T06:09:12.467Z,40.70
2017-11-18T06:11:40.026Z,41.03
2017-11-18T06:14:07.874Z,39.13
2017-11-18T06:16:36.190Z,37.93
2017-11-18T06:19:03.736Z,44.70
2017-11-18T06:21:31.323Z,56.83
2017-11-18T06:23:58.867Z,48.30
2017-11-18T06:26:26.803Z,45.33
2017-11-18T06:28:55.142Z,45.10
2017-11-18T06:31:22.704Z,40.17
2017-11-18T06:33:50.305Z,32.67
2017-11-18T06:36:17.869Z,44.00
2017-11-18T06:38:45.729Z,22.80
2017-11-18T06:41:14.043Z,30.73
2017-11-18T06:43:41.606Z,28.40
2017-11-18T06:46:09.193Z,32.50
2017-11-18T06:48:36.752Z,41.73
2017-11-18T06:51:04.561Z,32.13
2017-11-18T06:53:32.111Z,49.00
2017-11-18T06:56:00.417Z,32.30
2017-11-18T06:58:28.024Z,37.87
2017-11-18T07:00:55.578Z,29.77
2017-11-18T07:03:23.524Z,42.50
2017-11-18T07:05:51.087Z,36.10
2017-11-18T07:08:18.663Z,33.30
2017-11-18T07:10:46.308Z,36.20
2017-11-18T07:13:13.859Z,39.70
2017-11-18T07:15:41.828Z,40.00
2017-11-18T07:18:09.383Z,28.63
2017-11-18T07:20:36.944Z,38.03
2017-11-18T07:23:05.304Z,29.50
2017-11-18T07:25:32.856Z,39.80
2017-11-18T07:28:00.700Z,31.43
2017-11-18T07:30:28.255Z,28.07
2017-11-18T07:32:56.584Z,37.47
2017-11-18T07:35:24.226Z,31.17
2017-11-18T07:37:51.784Z,44.40
2017-11-18T07:40:19.368Z,37.87
2017-11-18T07:42:46.974Z,34.30
2017-11-18T07:45:15.624Z,36.87
2017-11-18T07:47:43.176Z,31.03
2017-11-18T07:50:10.726Z,22.50
2017-11-18T07:52:38.700Z,39.90
2017-11-18T07:55:06.260Z,31.30
2017-11-18T07:57:33.810Z,38.37
2017-11-18T08:00:02.532Z,33.93
2017-11-18T08:02:30.084Z,33.07
2017-11-18T08:04:57.647Z,32.23
2017-11-18T08:07:25.604Z,33.30
2017-11-18T08:09:53.176Z,35.60
2017-11-18T08:12:20.725Z,26.70
2017-11-18T08:14:48.580Z,28.03
2017-11-18T08:17:16.124Z,35.90
2017-11-18T08:19:43.675Z,32.50
2017-11-18T08:22:11.519Z,33.30
2017-11-18T08:24:39.081Z,26.93
2017-11-18T08:27:06.638Z,41.73
2017-11-18T08:29:34.681Z,33.40
2017-11-18T08:32:03.118Z,29.53
2017-11-18T08:34:30.664Z,31.90
2017-11-18T08:36:58.671Z,34.23
2017-11-18T08:39:26.286Z,22.53
2017-11-18T08:41:53.834Z,26.20
2017-11-18T08:44:22.476Z,30.50
2017-11-18T08:46:50.042Z,31.13
2017-11-18T08:49:17.594Z,33.43
2017-11-18T08:51:45.457Z,28.53
2017-11-18T08:54:13.011Z,29.43
2017-11-18T08:56:40.571Z,21.90
2017-11-18T08:59:08.438Z,26.63
2017-11-18T09:01:35.981Z,29.23
2017-11-18T09:04:03.541Z,23.17
2017-11-18T09:06:31.682Z,22.10
2017-11-18T09:08:59.242Z,29.73
2017-11-18T09:11:26.792Z,24.37
2017-11-18T09:13:55.149Z,31.90
2017-11-18T09:16:23.483Z,26.20
2017-11-18T09:18:51.372Z,27.20
2017-11-18T09:21:18.931Z,23.13
2017-11-18T09:23:48.004Z,30.83
2017-11-18T09:26:15.594Z,26.50
2017-11-18T09:28:43.166Z,17.87
2017-11-18T09:31:11.079Z,22.43
2017-11-18T09:33:38.626Z,14.63
2017-11-18T09:36:06.188Z,16.50
2017-11-18T09:38:33.946Z,25.83
2017-11-18T09:41:01.664Z,14.57
2017-11-18T09:43:31.056Z,21.23
2017-11-18T09:45:58.599Z,22.97
2017-11-18T09:48:26.188Z,20.63
2017-11-18T09:50:53.785Z,15.33
2017-11-18T09:53:21.326Z,21.43
2017-11-18T09:55:52.638Z,21.20
2017-11-18T09:58:20.194Z,17.80
2017-11-18T10:00:47.756Z,16.53
2017-11-18T10:03:15.367Z,27.43
2017-11-18T10:05:42.902Z,22.97
2017-11-18T10:08:10.812Z,17.43
2017-11-18T10:10:38.365Z,14.60
2017-11-18T10:13:05.918Z,19.80
2017-11-18T10:15:33.506Z,17.43
2017-11-18T10:18:01.875Z,13.43
2017-11-18T10:20:29.867Z,28.20
2017-11-18T10:22:57.431Z,16.40
2017-11-18T10:25:24.998Z,15.20
2017-11-18T10:27:52.869Z,26.60
2017-11-18T10:30:20.489Z,18.33
2017-11-18T10:32:48.052Z,13.27
2017-11-18T10:35:15.638Z,21.47
2017-11-18T10:37:43.236Z,23.23
2017-11-18T10:40:11.102Z,16.33
2017-11-18T10:42:38.662Z,16.43
2017-11-18T10:45:06.997Z,16.53
2017-11-18T10:47:34.605Z,17.03
2017-11-18T10:50:02.911Z,11.80
2017-11-18T10:52:30.903Z,13.20
2017-11-18T10:54:58.447Z,20.27
2017-11-18T10:57:26.006Z,12.67
2017-11-18T10:59:53.830Z,17.17
2017-11-18T11:02:21.382Z,14.80
2017-11-18T11:04:50.022Z,7.03
2017-11-18T11:07:17.576Z,10.13
2017-11-18T11:09:45.157Z,10.20
2017-11-18T11:12:12.751Z,14.63
2017-11-18T11:14:40.293Z,14.17
2017-11-18T11:17:08.976Z,11.60
2017-11-18T11:19:36.567Z,12.07
2017-11-18T11:22:04.136Z,17.60
2017-11-18T11:24:31.734Z,11.70
2017-11-18T11:26:59.283Z,11.57
2017-11-18T11:29:27.216Z,11.73
2017-11-18T11:31:54.764Z,15.83
2017-11-18T11:34:23.096Z,11.60
2017-11-18T11:36:50.960Z,11.60
2017-11-18T11:39:18.518Z,16.70
2017-11-18T11:41:46.609Z,14.73
2017-11-18T11:44:14.199Z,12.20
2017-11-18T11:46:41.757Z,11.97
2017-11-18T11:49:10.122Z,14.73
2017-11-18T11:51:37.699Z,17.47
2017-11-18T11:54:06.585Z,8.77
2017-11-18T11:56:34.889Z,8.90
2017-11-18T11:59:02.487Z,10.43
2017-11-18T12:01:30.122Z,13.70
2017-11-18T12:03:57.683Z,9.33
2017-11-18T12:06:25.664Z,17.60
2017-11-18T12:08:53.197Z,13.27
2017-11-18T12:11:20.774Z,20.60
2017-11-18T12:13:49.311Z,15.67
2017-11-18T12:16:17.687Z,16.70
2017-11-18T12:18:45.647Z,19.73
2017-11-18T12:21:13.992Z,11.90
2017-11-18T12:23:41.560Z,14.53
2017-11-18T12:26:09.164Z,11.80
2017-11-18T12:28:36.723Z,10.03
2017-11-18T12:31:04.750Z,11.47
2017-11-18T12:33:32.302Z,14.37
2017-11-18T12:35:59.984Z,10.73
2017-11-18T12:38:27.603Z,16.53
2017-11-18T12:40:55.158Z,21.90
2017-11-18T12:43:23.094Z,13.60
2017-11-18T12:45:51.395Z,8.90
2017-11-18T12:48:18.961Z,14.70
2017-11-18T12:50:46.563Z,12.47
2017-11-18T12:53:14.127Z,14.23
2017-11-18T12:55:41.983Z,16.23
2017-11-18T12:58:09.539Z,21.20
2017-11-18T13:00:37.100Z,14.27
2017-11-18T13:03:04.717Z,15.97
2017-11-18T13:05:32.276Z,6.87
2017-11-18T13:08:00.293Z,22.23
2017-11-18T13:10:27.866Z,16.23
2017-11-18T13:12:55.427Z,8.17
2017-11-18T13:15:23.024Z,13.23
2017-11-18T13:17:50.588Z,15.33
2017-11-18T13:20:18.579Z,14.77
2017-11-18T13:22:46.134Z,19.50
2017-11-18T13:25:13.757Z,19.63
2017-11-18T13:27:43.830Z,14.20
2017-11-18T13:30:12.191Z,20.77
2017-11-18T13:32:40.180Z,16.20
2017-11-18T13:35:07.944Z,23.30
2017-11-18T13:37:36.477Z,16.00
2017-11-18T13:40:04.131Z,23.33
2017-11-18T13:42:31.812Z,14.90
2017-11-18T13:44:59.718Z,18.67
2017-11-18T13:47:27.714Z,16.30
2017-11-18T13:49:56.397Z,10.33
2017-11-18T13:52:24.130Z,27.33
2017-11-18T13:54:51.700Z,20.30
2017-11-18T13:57:19.793Z,14.13
2017-11-18T13:59:48.137Z,15.93
2017-11-18T14:02:16.084Z,33.70
2017-11-18T14:04:43.680Z,18.53
2017-11-18T14:07:11.219Z,19.30
2017-11-18T14:09:39.113Z,23.53
2017-11-18T14:12:06.673Z,19.20
2017-11-18T14:14:34.207Z,9.40
2017-11-18T14:17:01.797Z,18.83
2017-11-18T14:19:30.866Z,18.33
2017-11-18T14:21:58.728Z,19.43
2017-11-18T14:24:26.287Z,21.30
2017-11-18T14:26:53.826Z,17.40
2017-11-18T14:29:21.431Z,17.80
2017-11-18T14:31:49.010Z,19.53
2017-11-18T14:34:16.942Z,17.80
2017-11-18T14:36:44.527Z,19.43
2017-11-18T14:39:12.082Z,19.23
2017-11-18T14:41:39.664Z,13.63
2017-11-18T14:44:07.230Z,12.97
2017-11-18T14:46:35.240Z,16.00
2017-11-18T14:49:02.795Z,29.53
2017-11-18T14:51:30.452Z,14.77
2017-11-18T14:53:58.097Z,15.50
2017-11-18T14:56:25.657Z,20.37
2017-11-18T14:58:53.562Z,23.80
2017-11-18T15:01:21.103Z,19.53
2017-11-18T15:03:48.648Z,19.13
2017-11-18T15:06:16.234Z,11.10
2017-11-18T15:08:43.952Z,18.80
2017-11-18T15:11:11.875Z,13.37
2017-11-18T15:13:39.420Z,17.10
2017-11-18T15:19:22.702Z,22.33
2017-11-18T15:21:53.288Z,15.27
2017-11-18T15:24:26.418Z,18.80
2017-11-18T15:26:59.930Z,16.27
2017-11-18T15:29:28.263Z,14.93
2017-11-18T15:32:01.975Z,21.47
2017-11-18T15:34:35.037Z,16.13
2017-11-18T15:37:08.758Z,20.33
2017-11-18T15:39:39.255Z,21.30
2017-11-18T15:42:06.799Z,17.13
2017-11-18T15:47:53.126Z,13.53
2017-11-18T15:50:24.333Z,15.90
2017-11-18T15:53:03.214Z,18.93
2017-11-18T15:55:49.442Z,14.37
2017-11-18T15:58:32.831Z,22.23
2017-11-18T16:01:06.216Z,17.90
2017-11-18T16:03:50.566Z,17.47
2017-11-18T16:06:18.135Z,21.87
2017-11-18T16:08:46.077Z,22.50
2017-11-18T16:11:13.615Z,16.63
2017-11-18T16:13:41.264Z,19.47
2017-11-18T16:16:08.859Z,21.43
2017-11-18T16:18:36.404Z,25.40
2017-11-18T16:21:04.452Z,23.60
2017-11-18T16:23:31.991Z,17.10
2017-11-18T16:25:59.547Z,12.33
2017-11-18T16:28:27.152Z,17.30
2017-11-18T16:30:54.708Z,16.30
2017-11-18T16:33:22.569Z,16.13
2017-11-18T16:35:50.621Z,25.43
2017-11-18T16:38:18.163Z,18.10
2017-11-18T16:40:45.811Z,13.47
2017-11-18T16:43:13.361Z,11.00
2017-11-18T16:45:41.282Z,12.40
2017-11-18T16:48:08.844Z,14.60
2017-11-18T16:50:36.401Z,15.43
2017-11-18T16:53:03.999Z,7.97
2017-11-18T16:55:31.621Z,10.73
2017-11-18T16:57:59.459Z,14.03
2017-11-18T17:00:27.050Z,10.40
2017-11-18T17:02:55.191Z,12.93
2017-11-18T17:05:22.785Z,12.20
2017-11-18T17:07:50.367Z,15.43
2017-11-18T17:10:18.513Z,5.60
2017-11-18T17:12:46.059Z,7.30
2017-11-18T17:15:13.623Z,11.53
2017-11-18T17:17:41.241Z,12.33
2017-11-18T17:20:08.790Z,19.00
2017-11-18T17:22:37.427Z,9.03
2017-11-18T17:25:04.971Z,14.00
2017-11-18T17:27:32.507Z,6.37
2017-11-18T17:30:00.121Z,10.40
2017-11-18T17:32:27.836Z,12.93
2017-11-18T17:34:55.752Z,9.10
2017-11-18T17:37:23.292Z,11.20
2017-11-18T17:39:50.831Z,10.40
2017-11-18T17:42:18.398Z,8.30
2017-11-18T17:44:47.014Z,9.60
2017-11-18T17:47:15.121Z,10.30
2017-11-18T17:49:43.438Z,15.77
2017-11-18T17:52:10.975Z,9.10
2017-11-18T17:54:38.551Z,8.87
2017-11-18T17:57:08.014Z,8.83
2017-11-18T17:59:36.675Z,3.60
2017-11-18T18:02:04.234Z,18.23
2017-11-18T18:04:31.795Z,13.83
2017-11-18T18:06:59.390Z,5.80
2017-11-18T18:09:26.934Z,7.43
2017-11-18T18:11:55.598Z,10.90
2017-11-18T18:14:23.166Z,11.90
2017-11-18T18:16:50.716Z,8.07
2017-11-18T18:19:18.437Z,13.00
2017-11-18T18:21:45.978Z,30.13
2017-11-18T18:24:13.895Z,12.00
2017-11-18T18:26:41.448Z,7.30
2017-11-18T18:29:08.985Z,13.93
2017-11-18T18:31:36.847Z,12.17
2017-11-18T18:34:04.397Z,12.47
2017-11-18T18:36:31.939Z,7.67
2017-11-18T18:38:59.531Z,3.13
2017-11-18T18:41:27.513Z,9.43
2017-11-18T18:43:55.491Z,7.60
2017-11-18T18:46:23.615Z,16.90
2017-11-18T18:48:51.182Z,15.57
2017-11-18T18:51:18.776Z,8.13
2017-11-18T18:53:46.358Z,11.00
2017-11-18T18:56:14.206Z,11.90
2017-11-18T18:58:41.745Z,9.93
2017-11-18T19:01:09.440Z,12.27
2017-11-18T19:03:37.071Z,12.20
2017-11-18T19:06:04.614Z,17.07
2017-11-18T19:08:32.536Z,9.53
2017-11-18T19:11:00.079Z,7.93
2017-11-18T19:13:27.679Z,18.90
2017-11-18T19:15:56.054Z,39.37
2017-11-18T19:18:24.091Z,23.17
2017-11-18T19:20:51.681Z,19.60
2017-11-18T19:23:21.967Z,15.33
2017-11-18T19:25:49.927Z,18.50
2017-11-18T19:28:17.485Z,15.97
2017-11-18T19:30:45.686Z,18.97
2017-11-18T19:33:13.345Z,13.00
2017-11-18T19:35:40.922Z,26.33
2017-11-18T19:38:09.291Z,13.37
2017-11-18T19:40:37.284Z,16.53
2017-11-18T19:43:05.611Z,18.57
2017-11-18T19:45:33.171Z,15.27
2017-11-18T19:48:00.924Z,20.53
2017-11-18T19:50:28.628Z,15.33
2017-11-18T19:52:56.167Z,14.67
2017-11-18T19:55:23.880Z,17.00
2017-11-18T19:57:51.467Z,12.37
2017-11-18T20:00:19.498Z,18.07
2017-11-18T20:02:47.067Z,11.70
2017-11-18T20:05:14.616Z,7.10
2017-11-18T20:07:42.218Z,13.47
2017-11-18T20:10:09.772Z,10.83
2017-11-18T20:12:37.366Z,14.37
2017-11-18T20:15:06.430Z,11.80
2017-11-18T20:17:34.343Z,17.37
2017-11-18T20:20:01.897Z,10.70
2017-11-18T20:22:29.677Z,12.33
2017-11-18T20:24:57.264Z,17.03
2017-11-18T20:27:24.819Z,22.10
2017-11-18T20:29:52.425Z,11.17
2017-11-18T20:32:19.978Z,14.20
2017-11-18T20:34:48.048Z,19.50
2017-11-18T20:37:15.803Z,12.90
2017-11-18T20:39:43.356Z,16.00
2017-11-18T20:42:10.951Z,3.17
2017-11-18T20:44:40.257Z,18.37
2017-11-18T20:47:09.350Z,20.87
2017-11-18T20:49:36.911Z,11.80
2017-11-18T20:52:04.963Z,16.30
2017-11-18T20:54:32.647Z,12.23
2017-11-18T20:57:00.972Z,10.40
2017-11-18T20:59:28.574Z,27.10
2017-11-18T21:01:56.130Z,24.57
2017-11-18T21:04:25.518Z,15.00
2017-11-18T21:06:53.169Z,18.23
2017-11-18T21:09:20.729Z,14.00
2017-11-18T21:11:48.345Z,19.00
2017-11-18T21:14:16.672Z,12.27
2017-11-18T21:16:44.292Z,16.97
2017-11-18T21:19:17.635Z,23.83
2017-11-18T21:21:45.706Z,20.90
2017-11-18T21:24:13.255Z,19.23
2017-11-18T21:26:40.930Z,15.80
2017-11-18T21:29:08.522Z,12.07
2017-11-18T21:31:36.838Z,15.60
2017-11-18T21:34:04.530Z,14.93
2017-11-18T21:36:32.136Z,10.30
2017-11-18T21:39:00.198Z,13.97
2017-11-18T21:41:29.011Z,14.53
2017-11-18T21:43:56.584Z,10.07
2017-11-18T21:46:24.227Z,14.33
2017-11-18T21:48:52.038Z,12.73
2017-11-18T21:51:19.702Z,17.73
2017-11-18T21:53:47.305Z,18.87
2017-11-18T21:56:15.439Z,12.53
2017-11-18T21:58:43.024Z,17.50
2017-11-18T22:01:10.596Z,11.20
2017-11-18T22:03:38.193Z,12.20
2017-11-18T22:06:05.746Z,12.40
2017-11-18T22:08:33.341Z,19.43
2017-11-18T22:11:00.899Z,28.57
2017-11-18T22:13:28.855Z,16.13
2017-11-18T22:15:56.419Z,13.03
2017-11-18T22:18:23.960Z,10.63
2017-11-18T22:20:51.548Z,15.93
2017-11-18T22:23:19.120Z,11.40
2017-11-18T22:25:47.486Z,13.40
2017-11-18T22:28:16.543Z,15.33
2017-11-18T22:30:44.541Z,15.80
2017-11-18T22:33:12.103Z,14.60
2017-11-18T22:35:39.685Z,10.30
2017-11-18T22:38:08.116Z,9.40
2017-11-18T22:40:35.679Z,4.60
2017-11-18T22:43:03.338Z,9.93
2017-11-18T22:45:30.904Z,10.20
2017-11-18T22:47:58.771Z,9.57
2017-11-18T22:50:26.357Z,8.73
2017-11-18T22:52:53.929Z,11.07
2017-11-18T22:55:22.308Z,8.20
2017-11-18T22:57:49.898Z,10.17
2017-11-18T23:00:17.498Z,18.53
2017-11-18T23:02:45.055Z,7.87
2017-11-18T23:05:13.039Z,7.30
2017-11-18T23:07:40.620Z,9.00
2017-11-18T23:10:08.197Z,12.00
2017-11-18T23:12:36.571Z,11.47
2017-11-18T23:15:04.135Z,7.87
2017-11-18T23:17:32.476Z,13.07
2017-11-18T23:20:00.068Z,19.27
2017-11-18T23:22:28.712Z,14.73
2017-11-18T23:24:56.297Z,16.03
2017-11-18T23:27:24.082Z,12.93
2017-11-18T23:29:52.447Z,8.17
2017-11-18T23:32:19.995Z,13.73
2017-11-18T23:34:47.713Z,9.40
2017-11-18T23:37:15.242Z,8.00
2017-11-18T23:39:43.200Z,8.77
2017-11-18T23:42:11.544Z,10.43
2017-11-18T23:44:39.126Z,11.50
2017-11-18T23:47:06.730Z,8.53
2017-11-18T23:49:34.291Z,10.07
2017-11-18T23:52:01.863Z,10.00
2017-11-18T23:54:29.417Z,8.07
2017-11-18T23:56:57.023Z,14.93
2017-11-18T23:59:24.596Z,7.07
